Time;durP1;ratioP1;P1;durP2;ratioP2;P2;SDS_P1;SDS_P2;PMS_P1;PMS_P2;Temp;Humidity;BMP_temperature;BMP_pressure;BME280_temperature;BME280_humidity;BME280_pressure;Samples;Min_cycle;Max_cycle;Signal;HPM_P1;HPM_P2
2022/11/04 00:00:18;;;;;;;14.97;8.83;;;;;;;14.87;70.56;94789.19;5074730;28;20181;-80
2022/11/04 00:02:47;;;;;;;14.13;8.50;;;;;;;14.72;70.61;94771.81;5073746;28;20194;-80
2022/11/04 00:05:14;;;;;;;11.40;8.20;;;;;;;14.58;70.93;94748.47;5073161;28;20183;-80
2022/11/04 00:13:08;;;;;;;14.63;8.53;;;;;;;14.71;70.58;94782.25;5070504;28;20190;-82
2022/11/04 00:18:22;;;;;;;14.27;8.70;;;;;;;14.73;70.55;94791.44;5091333;28;20278;-82
2022/11/04 00:29:02;;;;;;;12.67;7.73;;;;;;;14.67;70.37;94794.63;5028919;28;20195;-80
2022/11/04 00:34:13;;;;;;;14.40;7.60;;;;;;;14.55;70.41;94773.56;5028484;28;20195;-81
2022/11/04 00:36:40;;;;;;;11.83;8.10;;;;;;;14.54;70.49;94769.38;5028649;28;20192;-79
2022/11/04 00:39:13;;;;;;;12.33;7.23;;;;;;;14.59;70.36;94776.63;5012713;28;20198;-79
2022/11/04 00:41:43;;;;;;;10.00;7.63;;;;;;;14.55;70.56;94775.34;5010259;28;20192;-80
2022/11/04 00:44:12;;;;;;;13.77;8.20;;;;;;;14.55;70.15;94780.50;5011465;28;20282;-85
2022/11/04 00:46:42;;;;;;;14.57;7.53;;;;;;;14.53;70.24;94770.34;5010451;28;20833;-84
2022/11/04 00:49:11;;;;;;;10.50;8.03;;;;;;;14.48;70.42;94762.31;5013109;28;20715;-80
2022/11/04 00:51:38;;;;;;;14.40;7.83;;;;;;;14.51;70.37;94766.34;5012973;28;20197;-86
2022/11/04 00:54:06;;;;;;;15.20;7.53;;;;;;;14.46;70.38;94755.66;5030088;28;20192;-84
2022/11/04 00:56:37;;;;;;;11.80;7.17;;;;;;;14.46;70.48;94761.63;5032687;28;20748;-80
2022/11/04 00:59:04;;;;;;;14.03;7.63;;;;;;;14.47;70.09;94762.44;5032609;28;20691;-80
2022/11/04 01:01:31;;;;;;;13.83;7.43;;;;;;;14.44;70.23;94760.97;5066516;28;20549;-80
2022/11/04 01:03:58;;;;;;;15.63;7.40;;;;;;;14.42;70.21;94767.25;5073875;28;20225;-82
2022/11/04 01:06:28;;;;;;;16.23;8.20;;;;;;;14.42;70.13;94762.09;5074140;28;20194;-84
2022/11/04 01:09:00;;;;;;;12.03;7.80;;;;;;;14.10;70.24;94706.28;5095614;28;20231;-81
2022/11/04 01:11:29;;;;;;;12.17;7.60;;;;;;;14.28;70.16;94736.03;5096993;28;20188;-83
2022/11/04 01:13:58;;;;;;;13.70;8.60;;;;;;;14.36;70.12;94752.44;5093953;28;20182;-82
2022/11/04 01:16:26;;;;;;;12.00;8.40;;;;;;;14.32;70.17;94747.63;5094429;28;20193;-87
2022/11/04 01:18:53;;;;;;;13.47;7.77;;;;;;;14.31;70.16;94745.22;5094969;28;20217;-86
2022/11/04 01:21:20;;;;;;;11.30;7.93;;;;;;;14.19;69.99;94729.28;5094913;28;20251;-81
2022/11/04 01:23:47;;;;;;;11.87;8.17;;;;;;;14.25;70.14;94733.81;5096164;28;20194;-89
2022/11/04 01:26:17;;;;;;;13.30;8.03;;;;;;;14.27;70.16;94736.19;5096418;28;20199;-82
2022/11/04 01:28:44;;;;;;;11.40;7.80;;;;;;;14.25;70.07;94735.56;5097483;28;20232;-85
2022/11/04 01:31:15;;;;;;;12.43;8.43;;;;;;;14.24;70.04;94724.44;5100958;28;20186;-86
2022/11/04 01:33:42;;;;;;;13.60;7.80;;;;;;;14.20;69.96;94728.31;5103951;28;20241;-93
2022/11/04 01:36:10;;;;;;;13.87;8.87;;;;;;;14.13;70.02;94723.97;5110705;28;20188;-80
2022/11/04 01:38:39;;;;;;;12.27;8.07;;;;;;;14.10;70.06;94714.00;5102714;28;20204;-81
2022/11/04 01:41:10;;;;;;;18.47;8.13;;;;;;;14.17;69.97;94735.56;5065234;22;20228;-79
2022/11/04 01:43:50;;;;;;;13.47;8.00;;;;;;;14.11;70.14;94726.69;5040360;28;20640;-80
2022/11/04 01:46:28;;;;;;;13.33;7.93;;;;;;;13.99;70.10;94705.63;5039429;28;20188;-79
2022/11/04 01:49:01;;;;;;;14.40;7.60;;;;;;;14.02;70.07;94713.00;5040168;28;20223;-79
2022/11/04 01:51:32;;;;;;;13.33;7.50;;;;;;;14.10;70.01;94724.28;5038352;28;20625;-79
2022/11/04 01:54:00;;;;;;;10.80;7.13;;;;;;;13.78;69.97;94677.78;5040119;28;20183;-82
2022/11/04 01:56:28;;;;;;;15.03;8.53;;;;;;;14.00;70.03;94714.94;5039022;28;20231;-80
2022/11/04 01:59:02;;;;;;;14.50;7.80;;;;;;;14.06;69.86;94723.78;5042064;28;20207;-80
2022/11/04 02:01:31;;;;;;;12.70;7.77;;;;;;;14.04;70.03;94723.16;5040540;28;20183;-80
2022/11/04 02:04:24;;;;;;;11.43;7.43;;;;;;;14.03;70.12;94721.53;5038546;28;20192;-81
2022/11/04 02:06:52;;;;;;;10.60;7.73;;;;;;;14.01;70.02;94723.47;5038901;28;20191;-84
2022/11/04 02:09:19;;;;;;;16.50;8.27;;;;;;;13.99;69.97;94707.41;5042407;28;20192;-83
2022/11/04 02:14:34;;;;;;;15.03;8.37;;;;;;;13.89;69.84;94699.00;5041487;28;20237;-80
2022/11/04 02:17:13;;;;;;;10.37;8.10;;;;;;;13.94;70.08;94714.75;5046089;28;20191;-80
2022/11/04 02:20:12;;;;;;;11.17;6.93;;;;;;;13.91;69.90;94700.47;5045123;28;20527;-80
2022/11/04 02:23:06;;;;;;;11.50;8.00;;;;;;;13.89;69.92;94697.25;4965609;29;20272;-79
2022/11/04 02:25:56;;;;;;;11.50;7.83;;;;;;;13.86;70.04;94704.44;4965697;29;20186;-85
2022/11/04 02:28:56;;;;;;;15.60;8.80;;;;;;;13.83;70.13;94699.66;4963222;29;20233;-79
2022/11/04 02:31:34;;;;;;;14.00;8.50;;;;;;;13.82;70.04;94701.41;4962600;29;20254;-79
2022/11/04 02:34:12;;;;;;;11.60;7.70;;;;;;;13.81;69.91;94698.00;4963300;29;20202;-80
2022/11/04 02:36:47;;;;;;;15.57;7.70;;;;;;;13.77;69.82;94696.75;4961971;29;20202;-82
2022/11/04 02:39:34;;;;;;;12.67;7.87;;;;;;;13.71;69.88;94681.94;4963617;29;20197;-80
2022/11/04 02:42:15;;;;;;;14.80;8.00;;;;;;;13.74;69.83;94694.50;4963962;29;20187;-80
2022/11/04 02:44:50;;;;;;;10.90;8.10;;;;;;;13.74;70.02;94706.53;4963653;29;20198;-80
2022/11/04 02:47:26;;;;;;;10.97;7.37;;;;;;;13.72;69.88;94704.09;4966085;29;20256;-79
2022/11/04 02:49:58;;;;;;;11.13;7.20;;;;;;;13.71;69.97;94696.56;4965704;29;20233;-79
2022/11/04 02:52:34;;;;;;;14.03;8.17;;;;;;;13.65;70.03;94690.28;4964672;29;20198;-79
2022/11/04 02:55:07;;;;;;;11.43;7.20;;;;;;;13.67;69.90;94701.19;4961889;29;20201;-82
2022/11/04 02:57:40;;;;;;;12.00;7.20;;;;;;;13.54;70.10;94681.09;4963936;29;20226;-80
2022/11/04 03:00:19;;;;;;;13.83;8.13;;;;;;;13.53;69.95;94674.34;5036917;28;20188;-78
2022/11/04 03:03:01;;;;;;;13.07;7.70;;;;;;;13.63;70.04;94699.09;5048634;28;20247;-82
2022/11/04 03:05:35;;;;;;;14.80;9.20;;;;;;;13.60;70.01;94689.13;5045292;28;20184;-82
2022/11/04 03:08:06;;;;;;;14.00;7.93;;;;;;;13.51;69.93;94680.59;5047095;28;20218;-80
2022/11/04 03:10:38;;;;;;;12.83;7.50;;;;;;;13.54;69.98;94688.78;5044419;28;20188;-78
2022/11/04 03:13:29;;;;;;;10.90;7.30;;;;;;;13.43;70.12;94671.13;5043966;28;20196;-79
2022/11/04 03:16:01;;;;;;;13.20;8.10;;;;;;;13.39;70.00;94674.94;5045356;28;20192;-81
2022/11/04 03:18:38;;;;;;;12.37;7.20;;;;;;;13.48;70.07;94686.84;5046724;28;20200;-79
2022/11/04 03:21:09;;;;;;;9.17;7.67;;;;;;;13.48;69.95;94681.72;5036927;28;20195;-82
2022/11/04 03:23:41;;;;;;;12.37;7.70;;;;;;;13.46;69.85;94688.75;5039959;28;20282;-82
2022/11/04 03:26:13;;;;;;;12.13;8.00;;;;;;;13.45;69.71;94686.34;5040168;28;20196;-80
2022/11/04 03:28:56;;;;;;;15.60;7.77;;;;;;;13.43;69.76;94691.66;5041080;28;20231;-87
2022/11/04 03:31:30;;;;;;;13.30;7.73;;;;;;;13.34;70.08;94671.22;5048169;28;20187;-82
2022/11/04 03:34:02;;;;;;;13.67;7.80;;;;;;;13.44;69.96;94695.03;5052489;28;20267;-80
2022/11/04 03:37:02;;;;;;;10.80;7.33;;;;;;;13.43;70.10;94694.22;5043750;28;20188;-80
2022/11/04 03:39:34;;;;;;;12.87;7.70;;;;;;;13.40;69.92;94696.31;5041830;28;20619;-80
2022/11/04 03:42:21;;;;;;;14.83;7.90;;;;;;;13.39;70.06;94700.63;5049476;22;20223;-81
2022/11/04 03:44:57;;;;;;;13.73;8.07;;;;;;;13.09;69.95;94648.00;5042295;28;20196;-82
2022/11/04 03:47:26;;;;;;;12.13;7.30;;;;;;;13.36;70.07;94693.22;5045993;28;20212;-81
2022/11/04 03:50:01;;;;;;;12.53;7.90;;;;;;;13.35;70.00;94694.19;5048122;28;20198;-80
2022/11/04 03:52:28;;;;;;;11.83;7.37;;;;;;;13.34;70.04;94691.75;5044431;28;20199;-80
2022/11/04 03:54:55;;;;;;;11.20;7.83;;;;;;;13.29;70.01;94681.97;5045766;28;20188;-88
2022/11/04 03:57:34;;;;;;;16.67;7.90;;;;;;;13.30;69.96;94689.53;5043237;28;20206;-81
2022/11/04 04:00:08;;;;;;;14.83;7.53;;;;;;;13.29;70.06;94685.31;5036534;28;20191;-80
2022/11/04 04:02:49;;;;;;;12.43;7.60;;;;;;;13.29;70.05;94689.66;5036686;28;20184;-79
2022/11/04 04:05:22;;;;;;;13.50;8.30;;;;;;;13.23;70.08;94677.44;5036248;28;20180;-78
2022/11/04 04:07:59;;;;;;;11.37;7.80;;;;;;;13.24;69.86;94682.41;5048866;28;20245;-79
2022/11/04 04:10:39;;;;;;;9.90;7.13;;;;;;;13.22;69.71;94679.22;5051063;28;20306;-79
2022/11/04 04:13:16;;;;;;;13.37;7.93;;;;;;;13.21;69.85;94682.72;5051507;28;20196;-79
2022/11/04 04:15:50;;;;;;;11.63;8.30;;;;;;;13.19;69.97;94679.50;5050725;28;20191;-83
2022/11/04 04:18:27;;;;;;;9.90;7.33;;;;;;;13.18;69.96;94677.88;5050964;28;20188;-82
2022/11/04 04:21:00;;;;;;;8.97;7.53;;;;;;;13.16;69.87;94684.13;5034441;28;20211;-80
2022/11/04 04:29:13;;;;;;;16.23;8.43;;;;;;;13.11;69.79;94676.88;5045067;28;20226;-81
2022/11/04 04:31:51;;;;;;;11.43;6.90;;;;;;;13.10;70.12;94675.28;5044652;28;20286;-79
2022/11/04 04:34:21;;;;;;;11.70;7.03;;;;;;;13.08;70.03;94677.16;5044605;28;20265;-79
2022/11/04 04:37:02;;;;;;;15.70;8.00;;;;;;;13.06;70.00;94667.06;5044519;28;20191;-79
2022/11/04 04:45:10;;;;;;;12.70;7.57;;;;;;;12.96;69.90;94666.38;5043443;28;20650;-85
2022/11/04 04:47:44;;;;;;;10.70;7.77;;;;;;;13.01;69.77;94677.00;5043046;28;20226;-79
2022/11/04 04:50:14;;;;;;;13.80;7.50;;;;;;;12.99;70.00;94675.53;5040174;28;20192;-87
2022/11/04 04:52:56;;;;;;;13.43;7.87;;;;;;;12.92;69.80;94669.41;5038930;28;20302;-81
2022/11/04 04:55:24;;;;;;;9.83;7.50;;;;;;;12.98;70.05;94682.44;5029871;28;20292;-80
2022/11/04 04:57:59;;;;;;;10.67;8.30;;;;;;;12.88;69.83;94668.09;5048990;28;20188;-79
2022/11/04 05:00:31;;;;;;;14.63;8.33;;;;;;;12.84;69.96;94657.34;5046562;28;20194;-78
2022/11/04 05:03:00;;;;;;;14.13;8.60;;;;;;;12.95;69.92;94681.91;5031565;28;20203;-79
2022/11/04 05:05:27;;;;;;;17.97;9.10;;;;;;;12.94;69.79;94683.69;5113067;22;20326;-81
2022/11/04 05:07:55;;;;;;;13.73;8.83;;;;;;;12.91;69.97;94683.19;5027072;28;20219;-79
2022/11/04 05:10:23;;;;;;;12.67;8.80;;;;;;;12.90;69.72;94673.88;5027631;28;20191;-80
2022/11/04 05:15:35;;;;;;;11.43;8.67;;;;;;;12.98;69.58;94682.44;5025904;28;20195;-82
2022/11/04 05:18:03;;;;;;;12.67;8.53;;;;;;;12.80;69.67;94651.69;5029299;28;20280;-80
2022/11/04 05:20:32;;;;;;;11.93;9.40;;;;;;;12.97;69.85;94680.81;5030671;28;20212;-82
2022/11/04 05:23:02;;;;;;;14.97;8.87;;;;;;;13.00;69.69;94679.72;5028201;28;20273;-79
2022/11/04 05:25:29;;;;;;;13.67;9.20;;;;;;;13.09;69.54;94688.28;5028609;28;20192;-81
2022/11/04 05:28:00;;;;;;;10.10;7.63;;;;;;;12.99;69.61;94671.19;5020827;28;20307;-83
2022/11/04 05:30:26;;;;;;;13.83;10.30;;;;;;;12.76;69.24;94629.06;5015240;28;20192;-85
2022/11/04 05:32:53;;;;;;;20.83;8.97;;;;;;;13.35;92.94;94683.13;5030901;28;20189;-85
2022/11/04 05:35:20;;;;;;;18.07;9.57;;;;;;;13.65;100.00;94668.94;5020540;28;20200;-82
2022/11/04 05:37:47;;;;;;;14.13;9.67;;;;;;;14.12;98.85;94702.59;5017090;28;20191;-86
2022/11/04 05:40:15;;;;;;;13.43;9.80;;;;;;;14.45;97.14;94698.25;5015032;28;20203;-82
2022/11/04 05:42:42;;;;;;;18.47;10.00;;;;;;;14.73;95.31;94695.38;5017669;28;20196;-86
2022/11/04 05:45:10;;;;;;;18.17;8.63;;;;;;;15.09;93.92;94711.25;5015984;28;20192;-85
2022/11/04 05:47:37;;;;;;;14.63;9.13;;;;;;;15.40;92.40;94718.25;5015324;28;20267;-86
2022/11/04 05:50:04;;;;;;;19.00;9.57;;;;;;;15.69;90.92;94713.31;5014529;28;20210;-82
2022/11/04 05:52:31;;;;;;;15.80;8.83;;;;;;;15.96;89.53;94714.63;5016892;28;20195;-83
2022/11/04 05:54:58;;;;;;;24.23;9.97;;;;;;;16.15;87.54;94715.16;5014307;28;20212;-87
2022/11/04 05:57:26;;;;;;;24.90;11.17;;;;;;;16.15;84.02;94715.97;5013945;28;20212;-87
2022/11/04 05:59:53;;;;;;;17.90;11.23;;;;;;;16.11;81.14;94701.81;5013623;28;20564;-84
2022/11/04 06:02:20;;;;;;;26.60;11.47;;;;;;;16.11;78.17;94714.72;5015627;28;20192;-84
2022/11/04 06:04:47;;;;;;;22.83;11.43;;;;;;;16.13;75.55;94715.34;5013696;28;20188;-84
2022/11/04 06:07:14;;;;;;;20.27;12.10;;;;;;;16.14;73.29;94718.72;5012168;28;20220;-83
2022/11/04 06:09:41;;;;;;;14.03;10.77;;;;;;;16.24;71.79;94716.72;5014065;28;20303;-89
2022/11/04 06:12:09;;;;;;;19.90;11.47;;;;;;;16.44;72.36;94719.63;5018033;28;20195;-87
2022/11/04 06:14:38;;;;;;;25.37;10.63;;;;;;;16.63;73.56;94720.97;5021886;28;20196;-85
2022/11/04 06:17:05;;;;;;;19.57;11.37;;;;;;;16.80;74.28;94715.50;5033949;28;20206;-83
2022/11/04 06:19:31;;;;;;;14.90;10.90;;;;;;;17.09;74.51;94719.09;5020563;28;20482;-84
2022/11/04 06:22:00;;;;;;;17.67;11.00;;;;;;;17.38;74.58;94718.31;5023400;28;20203;-88
2022/11/04 06:24:27;;;;;;;15.07;9.93;;;;;;;17.72;74.14;94722.94;5010257;28;20195;-89
2022/11/04 06:26:55;;;;;;;16.87;10.40;;;;;;;18.08;73.36;94722.16;5014150;28;20227;-88
2022/11/04 06:29:22;;;;;;;16.53;10.10;;;;;;;18.39;72.83;94700.34;5009714;28;20501;-88
2022/11/04 06:31:50;;;;;;;17.23;10.70;;;;;;;18.87;72.23;94710.94;5011996;28;20292;-87
2022/11/04 06:34:17;;;;;;;19.83;9.60;;;;;;;19.24;71.05;94709.81;5012823;28;20215;-87
2022/11/04 06:36:44;;;;;;;21.63;10.90;;;;;;;19.76;70.06;94727.47;5011254;28;20193;-85
2022/11/04 06:39:11;;;;;;;18.13;10.43;;;;;;;20.25;68.76;94733.41;5012120;28;20726;-85
2022/11/04 06:41:38;;;;;;;17.23;10.83;;;;;;;20.68;67.47;94727.91;5011975;28;20208;-82
2022/11/04 06:44:05;;;;;;;18.33;10.23;;;;;;;21.13;66.35;94733.31;5013908;28;20556;-84
2022/11/04 06:46:36;;;;;;;15.68;10.15;;;;;;;21.59;65.41;94735.03;5012792;28;20204;-84
2022/11/04 06:49:05;;;;;;;21.13;10.93;;;;;;;21.85;64.42;94715.94;5010958;28;20216;-90
2022/11/04 06:51:33;;;;;;;19.02;10.68;;;;;;;22.42;63.42;94730.72;5010130;28;20195;-86
2022/11/04 06:54:00;;;;;;;16.38;10.48;;;;;;;22.71;62.29;94713.69;5023026;28;20192;-86
2022/11/04 06:56:27;;;;;;;20.77;10.77;;;;;;;23.16;61.29;94731.00;5020427;28;20207;-87
2022/11/04 06:58:55;;;;;;;19.73;10.82;;;;;;;23.52;59.88;94725.00;5020822;28;20211;-86
2022/11/04 07:01:24;;;;;;;17.52;10.43;;;;;;;23.88;59.01;94729.47;5013595;28;20198;-85
2022/11/04 07:03:51;;;;;;;14.20;9.73;;;;;;;24.22;58.35;94725.44;5011926;28;20196;-86
2022/11/04 07:06:20;;;;;;;15.20;9.57;;;;;;;24.56;57.16;94724.97;5011674;28;20228;-84
2022/11/04 07:08:48;;;;;;;15.38;10.05;;;;;;;24.71;56.39;94707.06;5011776;28;20611;-86
2022/11/04 07:11:16;;;;;;;11.93;9.43;;;;;;;24.98;55.74;94697.75;5011855;28;20592;-87
2022/11/04 07:13:43;;;;;;;15.40;9.80;;;;;;;25.29;55.03;94701.06;5015483;28;20192;-85
2022/11/04 07:16:10;;;;;;;16.65;9.90;;;;;;;25.59;53.99;94703.53;5016626;28;20212;-85
2022/11/04 07:18:37;;;;;;;16.80;9.55;;;;;;;25.82;53.14;94697.50;5016151;28;20208;-86
2022/11/04 07:21:05;;;;;;;11.85;10.05;;;;;;;26.13;52.42;94719.06;5016107;28;20191;-90
2022/11/04 07:23:34;;;;;;;16.58;9.43;;;;;;;26.19;51.55;94689.28;5012321;28;20207;-86
2022/11/04 07:26:02;;;;;;;16.13;9.35;;;;;;;26.51;51.57;94708.78;5011872;28;20665;-91
2022/11/04 07:28:29;;;;;;;17.08;9.43;;;;;;;26.59;50.76;94685.78;5012220;28;20230;-89
2022/11/04 07:30:57;;;;;;;16.65;9.05;;;;;;;26.80;50.43;94695.56;5020684;28;20168;-84
2022/11/04 07:33:25;;;;;;;12.93;10.10;;;;;;;27.01;49.78;94707.19;5030956;28;20193;-87
2022/11/04 07:35:53;;;;;;;16.52;10.50;;;;;;;27.10;49.22;94694.47;5017422;28;20196;-87
2022/11/04 07:38:20;;;;;;;11.70;9.50;;;;;;;27.27;48.74;94703.91;5012555;28;20188;-86
2022/11/04 07:40:48;;;;;;;13.18;9.82;;;;;;;27.40;48.24;94704.63;5011475;28;20258;-87
2022/11/04 07:43:16;;;;;;;15.93;10.10;;;;;;;27.49;48.09;94696.06;5012239;28;20560;-87
2022/11/04 07:45:43;;;;;;;16.35;10.68;;;;;;;27.53;48.32;94696.38;5012318;28;20206;-89
2022/11/04 07:48:09;;;;;;;16.35;8.98;;;;;;;27.45;48.29;94692.34;5012947;28;20215;-86
2022/11/04 07:50:40;;;;;;;19.08;10.13;;;;;;;27.23;48.23;94679.19;5011291;28;20227;-84
2022/11/04 07:53:10;;;;;;;19.27;11.20;;;;;;;27.01;48.35;94667.81;5010723;28;20223;-83
2022/11/04 07:55:38;;;;;;;17.33;10.85;;;;;;;26.88;48.02;94697.81;5009697;28;20247;-84
2022/11/04 07:58:08;;;;;;;16.20;10.95;;;;;;;26.65;47.78;94679.59;5012077;28;20188;-86
2022/11/04 08:00:35;;;;;;;17.60;10.85;;;;;;;26.34;48.04;94662.50;5013258;28;20196;-89
2022/11/04 08:03:02;;;;;;;17.70;11.70;;;;;;;26.78;46.97;94684.53;5015347;28;20364;-86
2022/11/04 08:05:29;;;;;;;18.55;10.60;;;;;;;27.13;45.38;94662.50;5017734;28;20228;-86
2022/11/04 08:07:57;;;;;;;18.73;11.15;;;;;;;27.92;44.24;94683.22;5016760;28;20200;-86
2022/11/04 08:10:24;;;;;;;19.27;11.40;;;;;;;27.80;44.00;94669.41;5017208;28;20235;-85
2022/11/04 08:12:52;;;;;;;17.67;11.43;;;;;;;27.42;43.98;94682.34;5014781;28;20199;-86
2022/11/04 08:15:20;;;;;;;19.27;12.20;;;;;;;26.88;44.46;94660.28;4997681;28;20196;-86
2022/11/04 08:17:47;;;;;;;13.98;11.18;;;;;;;26.82;44.65;94669.91;5009841;28;20215;-84
2022/11/04 08:20:14;;;;;;;14.68;10.85;;;;;;;27.03;43.75;94665.75;5012368;28;20195;-86
2022/11/04 08:22:41;;;;;;;19.27;11.95;;;;;;;26.70;43.83;94664.72;5014112;28;20204;-80
2022/11/04 08:25:10;;;;;;;16.58;11.13;;;;;;;25.91;44.49;94601.78;5014021;28;20192;-85
2022/11/04 08:27:37;;;;;;;16.50;11.45;;;;;;;25.94;44.93;94652.91;5013980;28;20196;-85
2022/11/04 08:30:04;;;;;;;15.68;12.02;;;;;;;25.61;45.23;94643.09;5013215;28;20224;-87
2022/11/04 08:32:33;;;;;;;16.63;12.82;;;;;;;25.07;45.63;94608.44;5012392;28;20192;-85
2022/11/04 08:35:00;;;;;;;14.73;11.20;;;;;;;24.85;45.69;94613.47;5015858;28;20652;-84
2022/11/04 08:37:29;;;;;;;21.67;13.32;;;;;;;24.61;46.22;94610.84;5015953;28;20196;-83
2022/11/04 08:39:56;;;;;;;15.60;12.77;;;;;;;24.39;46.45;94609.78;5011552;28;20201;-88
2022/11/04 08:42:23;;;;;;;17.02;12.60;;;;;;;24.39;46.34;94636.72;5014486;28;20211;-82
2022/11/04 08:44:51;;;;;;;17.10;12.25;;;;;;;24.20;46.59;94630.75;5014658;28;20207;-86
2022/11/04 08:47:18;;;;;;;16.10;12.05;;;;;;;24.03;47.19;94627.19;5015080;28;20255;-83
2022/11/04 08:49:46;;;;;;;18.13;12.13;;;;;;;23.88;47.35;94637.25;5016037;28;20922;-83
2022/11/04 08:52:13;;;;;;;19.17;12.38;;;;;;;23.68;47.94;94630.47;5014912;28;20208;-85
2022/11/04 08:54:40;;;;;;;18.10;12.43;;;;;;;23.44;47.81;94616.44;5013157;28;20211;-82
2022/11/04 08:57:08;;;;;;;17.00;12.30;;;;;;;23.31;47.86;94608.78;5013775;28;20188;-86
2022/11/04 08:59:36;;;;;;;17.52;12.98;;;;;;;23.11;48.29;94588.16;5017430;28;20196;-82
2022/11/04 09:02:03;;;;;;;18.48;12.60;;;;;;;23.00;48.46;94583.63;5017609;28;20195;-81
2022/11/04 09:04:30;;;;;;;17.60;12.98;;;;;;;23.06;48.38;94608.06;5018331;28;20272;-85
2022/11/04 09:06:58;;;;;;;21.55;13.27;;;;;;;22.83;48.71;94577.38;5016769;28;20314;-84
2022/11/04 09:09:25;;;;;;;20.35;13.05;;;;;;;22.87;48.75;94596.78;5015077;28;20599;-83
2022/11/04 09:11:52;;;;;;;18.58;13.30;;;;;;;22.94;48.80;94613.22;5012897;28;20272;-85
2022/11/04 09:14:20;;;;;;;25.05;13.27;;;;;;;22.88;48.99;94612.22;5013436;28;20185;-84
2022/11/04 09:16:46;;;;;;;18.00;12.45;;;;;;;22.75;49.42;94596.69;5012370;28;20180;-85
2022/11/04 09:19:13;;;;;;;20.88;12.55;;;;;;;22.65;49.57;94583.38;5013347;28;20199;-85
2022/11/04 09:21:40;;;;;;;24.95;14.50;;;;;;;22.70;49.59;94592.13;5012600;28;20583;-85
2022/11/04 09:24:10;;;;;;;15.60;12.52;;;;;;;22.61;49.50;94593.41;5013048;28;20674;-84
2022/11/04 09:26:37;;;;;;;21.02;13.82;;;;;;;22.35;49.60;94549.34;5012717;28;20188;-87
2022/11/04 09:29:05;;;;;;;18.27;12.45;;;;;;;22.50;50.09;94583.72;5013363;28;20220;-84
2022/11/04 09:31:32;;;;;;;20.48;12.93;;;;;;;22.50;50.09;94594.94;5029014;28;20255;-83
2022/11/04 09:33:59;;;;;;;19.38;13.65;;;;;;;22.48;49.97;94576.09;5016060;28;20195;-86
2022/11/04 09:36:27;;;;;;;17.63;12.48;;;;;;;22.39;49.85;94568.75;5015139;28;20192;-85
2022/11/04 09:38:55;;;;;;;19.67;12.07;;;;;;;22.31;50.10;94548.97;5015484;28;20208;-85
2022/11/04 09:41:41;;;;;;;18.85;12.48;;;;;;;22.49;50.42;94569.06;5013704;28;20263;-80
2022/11/04 09:44:25;;;;;;;17.20;12.10;;;;;;;22.55;50.26;94563.00;5013750;28;20243;-85
2022/11/04 09:46:55;;;;;;;18.30;12.75;;;;;;;22.34;50.55;94511.28;5011357;28;20196;-84
2022/11/04 09:49:22;;;;;;;15.23;12.07;;;;;;;22.59;50.62;94545.13;5012677;28;20224;-85
2022/11/04 09:51:50;;;;;;;17.75;12.90;;;;;;;22.68;50.48;94544.63;5008214;28;20193;-83
2022/11/04 09:54:22;;;;;;;19.33;13.70;;;;;;;22.74;50.45;94542.97;5012549;28;20196;-85
2022/11/04 09:56:53;;;;;;;15.68;12.45;;;;;;;22.75;50.27;94527.13;5011783;28;20211;-85
2022/11/04 09:59:25;;;;;;;15.38;12.27;;;;;;;22.69;50.60;94499.28;5012430;28;20200;-84
2022/11/04 10:02:03;;;;;;;15.13;12.13;;;;;;;22.91;50.44;94525.75;5008016;28;20197;-86
2022/11/04 10:04:43;;;;;;;18.02;11.45;;;;;;;22.99;50.21;94522.84;5012312;28;20200;-82
2022/11/04 10:07:23;;;;;;;16.30;11.75;;;;;;;22.94;50.07;94495.84;5010888;28;20598;-82
2022/11/04 10:10:01;;;;;;;14.68;12.65;;;;;;;22.97;50.19;94484.97;5012201;28;20230;-85
2022/11/04 10:13:00;;;;;;;19.75;12.85;;;;;;;23.09;49.92;94503.28;5014195;28;20196;-88
2022/11/04 10:15:50;;;;;;;16.23;12.50;;;;;;;23.13;49.52;94504.44;4969677;28;20681;-85
2022/11/04 10:18:34;;;;;;;21.38;14.15;;;;;;;23.17;49.62;94508.19;4967703;28;20405;-84
2022/11/04 10:21:09;;;;;;;15.10;12.85;;;;;;;23.16;49.52;94501.41;4969711;28;20194;-84
2022/11/04 10:23:44;;;;;;;17.40;12.75;;;;;;;23.16;49.68;94496.19;4967513;28;20208;-82
2022/11/04 10:26:16;;;;;;;16.73;12.98;;;;;;;23.16;49.56;94488.34;4964264;28;20228;-85
2022/11/04 10:28:51;;;;;;;21.88;12.40;;;;;;;23.07;49.72;94471.41;4965345;28;20642;-84
2022/11/04 10:31:19;;;;;;;19.48;13.45;;;;;;;22.86;49.59;94443.97;4967863;28;20311;-85
2022/11/04 10:33:50;;;;;;;15.75;12.15;;;;;;;22.96;49.59;94458.09;4964900;28;20248;-84
2022/11/04 10:36:18;;;;;;;19.42;13.00;;;;;;;23.06;49.46;94462.78;4983702;28;20334;-84
2022/11/04 10:38:48;;;;;;;17.38;12.50;;;;;;;22.96;49.54;94449.47;4973859;28;20196;-82
2022/11/04 10:41:28;;;;;;;17.88;12.38;;;;;;;23.07;49.21;94448.72;4971325;28;20655;-83
2022/11/04 10:44:03;;;;;;;19.00;12.63;;;;;;;22.97;49.19;94433.63;4966837;28;20198;-84
2022/11/04 10:46:40;;;;;;;18.80;12.55;;;;;;;23.02;49.16;94432.94;4966516;28;20197;-84
2022/11/04 10:49:31;;;;;;;21.85;13.07;;;;;;;23.04;49.33;94433.50;4969961;28;20208;-86
2022/11/04 10:51:58;;;;;;;17.25;12.50;;;;;;;22.85;49.58;94398.84;4982420;28;20663;-87
2022/11/04 10:54:27;;;;;;;15.40;11.80;;;;;;;22.88;49.53;94397.56;5013021;28;20219;-81
2022/11/04 10:56:56;;;;;;;17.75;12.02;;;;;;;22.99;49.51;94410.69;5010919;28;20211;-86
2022/11/04 10:59:27;;;;;;;17.25;11.50;;;;;;;22.94;49.74;94413.19;5018401;28;20200;-83
2022/11/04 11:01:56;;;;;;;17.85;13.13;;;;;;;22.86;49.93;94410.84;5020127;28;20204;-82
2022/11/04 11:04:28;;;;;;;16.92;12.40;;;;;;;22.48;49.93;94343.34;5019608;28;20204;-83
2022/11/04 11:06:57;;;;;;;18.58;12.43;;;;;;;22.81;49.96;94408.13;5010854;28;20603;-87
2022/11/04 11:09:28;;;;;;;16.67;11.90;;;;;;;22.79;50.10;94397.09;5013046;28;20215;-86
2022/11/04 11:11:58;;;;;;;26.88;13.70;;;;;;;22.70;49.46;94382.78;5011868;28;20196;-86
2022/11/04 11:14:36;;;;;;;21.55;11.38;;;;;;;22.72;49.76;94375.53;5009095;28;20207;-84
2022/11/04 11:17:24;;;;;;;19.42;12.20;;;;;;;22.70;49.50;94369.75;5009511;28;20188;-86
2022/11/04 11:19:56;;;;;;;18.05;11.80;;;;;;;22.65;49.60;94353.97;5009943;28;20200;-87
2022/11/04 11:22:31;;;;;;;22.98;12.05;;;;;;;22.76;49.73;94369.66;5011489;28;20279;-84
2022/11/04 11:25:13;;;;;;;19.73;11.35;;;;;;;22.66;49.72;94350.34;5009569;28;20257;-89
2022/11/04 11:27:45;;;;;;;12.23;10.65;;;;;;;22.77;49.66;94357.41;5011584;28;20196;-87
2022/11/04 11:30:22;;;;;;;19.15;12.07;;;;;;;22.52;49.93;94311.41;5023930;28;20227;-80
2022/11/04 11:32:56;;;;;;;17.98;10.95;;;;;;;22.77;49.85;94336.56;5015932;28;20618;-83
2022/11/04 11:35:27;;;;;;;14.85;10.35;;;;;;;22.74;49.84;94329.19;5010700;28;20196;-84
2022/11/04 11:37:54;;;;;;;17.55;11.82;;;;;;;22.74;49.72;94329.97;5005737;28;20272;-83
2022/11/04 11:40:30;;;;;;;15.38;11.18;;;;;;;22.44;49.73;94285.66;5008273;28;20216;-84
2022/11/04 11:42:58;;;;;;;15.52;11.27;;;;;;;22.75;49.96;94325.53;5008794;28;20192;-86
2022/11/04 11:45:27;;;;;;;14.75;11.23;;;;;;;22.74;49.82;94324.75;5010697;28;20200;-83
2022/11/04 11:47:55;;;;;;;16.98;10.68;;;;;;;22.70;49.93;94320.22;5010659;28;20192;-84
2022/11/04 11:50:30;;;;;;;15.00;11.07;;;;;;;22.62;50.17;94310.88;5010927;28;20220;-86
2022/11/04 11:53:14;;;;;;;16.83;11.57;;;;;;;22.60;50.44;94304.31;5011910;28;20195;-86
2022/11/04 11:55:46;;;;;;;15.63;11.43;;;;;;;22.41;50.39;94288.72;5019880;28;20188;-87
2022/11/04 11:58:25;;;;;;;17.23;10.80;;;;;;;22.36;50.60;94290.38;5017818;28;20207;-87
2022/11/04 12:01:00;;;;;;;16.80;11.20;;;;;;;22.40;50.73;94305.34;5013065;28;20685;-89
2022/11/04 12:03:34;;;;;;;15.25;11.32;;;;;;;22.32;50.87;94295.22;5013225;28;20227;-86
2022/11/04 12:06:17;;;;;;;17.27;10.55;;;;;;;22.13;51.16;94265.81;5009232;28;20224;-86
2022/11/04 12:09:21;;;;;;;18.13;11.02;;;;;;;22.23;51.07;94286.13;5011466;28;20675;-86
2022/11/04 12:12:02;;;;;;;17.08;10.98;;;;;;;22.17;51.01;94290.41;4933672;29;20289;-83
2022/11/04 12:14:42;;;;;;;17.38;11.18;;;;;;;21.96;51.15;94265.59;4926361;29;20199;-84
2022/11/04 12:17:30;;;;;;;18.17;11.60;;;;;;;22.10;51.09;94294.88;4919754;29;20207;-85